Kapolei, HI (96707)

4:05 PM HST on August 31, 2015 (GMT -1000)
Upper Makakilo | | Change Station
CLOSE
Current Station
Personal Weather Station
Location: Makakilo City, HI
Elevation: 1060 ft
Nearby Weather Stations

Elev 1060 ft 21.37 °N, 158.09 °W | Updated 4 seconds ago

Scattered Clouds
Scattered Clouds
79.3 °F
Feels Like 83 °F
N
13.1
Wind Variable Wind from NE
Gusts 17.3 mph

Today
High -- | Low -- °F
--% Chance of Precip.
Yesterday
High -- | Low -- °F
Precip. -- in
6:15 AM 6:49 PM
Waning Gibbous, 92% visible
Pressure 29.87 in
Visibility 10.0 miles
Clouds Few 3000 ft
Scattered Clouds 5000 ft
Heat Index 83 °F
Dew Point 75 °F
Humidity 86%
Rainfall 0.02 in
Snow Depth Not available.
UV 0.6 out of 12
Pollen Not available.
Air Quality Not available.
Flu Activity Not available.
METAR PHJR 010153Z 20004KT 10SM FEW030 SCT050 29/25 A2985 RMK AO2 RAB02E41 SLP113 P0007 T02890250
Pressure 29.87 in
Visibility 10.0 miles
Clouds Few 3000 ft
Scattered Clouds 5000 ft
Heat Index 83 °F
Dew Point 75 °F
Humidity 86%
Rainfall 0.02 in
Snow Depth Not available.
UV 0.6 out of 12
Pollen Not available.
Air Quality Not available.
Flu Activity Not available.
METAR PHJR 010153Z 20004KT 10SM FEW030 SCT050 29/25 A2985 RMK AO2 RAB02E41 SLP113 P0007 T02890250

10-Day Weather Forecast

×

Almanac

Astronomy

Aug. 31, 2015 Rise Set
Actual Time
Civil Twilight
Nautical Twilight
Astronomical Twilight
Moon
Length of Visible Light
Length of Day
Tomorrow will be .
, % of the Moon is Illuminated

Today's Extremes

State Highs State Lows

Community

WunderPhotos

Upload Photos

1,851,441 photos uploaded!

WunderBlogs® & News

Nearby

Air Quality

  Air Quality AQ Index Pollutant
Not available.

Snow Depth

Station Depth Elevation

Earthquake Activity

City Distance Mag. Time & Date
Minimum magnitude displayed is 2.5.

Coastal Water Temperatures

Place Temperature

Stations

Nearby Weather Stations

Station Location Temp. Windchill Dew Point Humidity Wind Precip. Elev Updated Type